ADDS METAR Data INFO
IDs: Format: Raw Decoded Include TAF

Data at: 1119 UTC 17 Jul 2018

KCON 171051Z AUTO 13004KT 4SM BR CLR 23/22 A2984 RMK AO2 SLP102 T02280217
KCON 170951Z AUTO 14003KT 4SM BR CLR 21/20 A2985 RMK AO2 SLP106 T02060200
KCON 170851Z AUTO 00000KT 7SM CLR 21/20 A2985 RMK AO2 SLP105 T02110200 56012
KCON 170751Z AUTO 00000KT 6SM BR CLR 21/20 A2986 RMK AO2 SLP108 T02110200
KCON 170651Z AUTO 09003KT 6SM BR FEW090 22/21 A2987 RMK AO2 SLP112 T02170206
KCON 170551Z AUTO 00000KT 6SM BR CLR 22/21 A2988 RMK AO2 RAE0458 SLP117 P0000 60002 T02170206 10267 20217 58013
KCON 170451Z AUTO 14003KT 7SM -RA BKN100 23/21 A2989 RMK AO2 RAB22 SLP119 P0002 T02280211 403220200
KCON 170442Z AUTO 16006KT 6SM -RA BR BKN110 23/21 A2990 RMK AO2 RAB22 P0001 T02280211
KCON 170427Z AUTO 15006KT 9SM VCTS -RA SCT110 23/21 A2990 RMK AO2 LTG DSNT S RAB22 P0000 T02280211
KCON 170351Z AUTO 17004KT 10SM BKN120 23/21 A2992 RMK AO2 LTG DSNT SW SLP131 T02280211
KCON 170251Z AUTO 16006KT 10SM CLR 23/21 A2992 RMK AO2 LTG DSNT W SLP131 T02330211 50004
KCON 170151Z AUTO 11003KT 10SM CLR 24/21 A2993 RMK AO2 SLP133 T02390211
KCON 170051Z AUTO 00000KT 10SM CLR 25/22 A2991 RMK AO2 SLP128 T02500217
KCON 162351Z AUTO 12006KT 10SM CLR 27/22 A2991 RMK AO2 SLP127 T02670217 10322 20267 58003
KCON 162251Z AUTO 13005KT 10SM CLR 28/20 A2991 RMK AO2 SLP128 T02830200
KCON 162151Z AUTO 14007KT 110V180 10SM CLR 30/19 A2992 RMK AO2 SLP129 T03000194
KCON 162051Z AUTO 13010KT 10SM CLR 31/20 A2992 RMK AO2 SLP129 T03110200 56016
KCON 161951Z AUTO 17009KT 10SM CLR 31/19 A2993 RMK AO2 SLP134 T03110189
KCON 161851Z AUTO 14008KT 10SM CLR 31/19 A2995 RMK AO2 SLP139 T03110189
KCON 161751Z AUTO 17007KT 130V190 10SM CLR 31/16 A2997 RMK AO2 SLP145 T03060161 10311 20211 58012
KCON 161651Z AUTO 13008KT 10SM CLR 29/18 A2998 RMK AO2 SLP151 T02940178
KCON 161551Z AUTO VRB04KT 10SM CLR 28/19 A2999 RMK AO2 SLP154 T02830194
KCON 161451Z AUTO VRB03KT 10SM CLR 26/19 A3000 RMK AO2 SLP158 T02610194 58003
KCON 161351Z AUTO 00000KT 10SM SCT065 25/19 A3001 RMK AO2 SLP161 T02500194
KCON 161304Z AUTO 00000KT 9SM SCT010 23/19 A3001 RMK AO2 T02330194
KCON 161251Z AUTO 00000KT 8SM OVC009 22/19 A3001 RMK AO2 SLP160 T02220194
KCON 161151Z AUTO VRB03KT 7SM OVC006 21/19 A3001 RMK AO2 SLP162 T02110194 10211 20200 51005
KCON 161051Z AUTO 02004KT 7SM OVC005 21/19 A3001 RMK AO2 SLP160 T02060194
KCON 161048Z AUTO 36003KT 7SM OVC005 21/19 A3001 RMK AO2
KCON 160951Z AUTO 00000KT 5SM BR OVC004 21/19 A3000 RMK AO2 SLP157 T02060194
KCON 160851Z AUTO 04004KT 4SM BR OVC003 21/19 A2999 RMK AO2 SLP154 T02060194 56001
KCON 160830Z AUTO 35004KT 3SM BR OVC003 21/19 A2999 RMK AO2 T02060194
KCON 160805Z AUTO 00000KT 2 1/2SM BR OVC004 21/19 A2999 RMK AO2 T02060194
KCON 160751Z AUTO 32003KT 3SM BR OVC004 21/19 A2999 RMK AO2 SLP154 T02060194
KCON 160749Z AUTO 00000KT 2 1/2SM BR OVC004 21/19 A2999 RMK AO2
KCON 160651Z AUTO 00000KT 8SM OVC005 20/19 A2999 RMK AO2 SLP154 T02000189
KCON 160551Z AUTO 09003KT 8SM OVC008 20/19 A2999 RMK AO2 SLP155 T02000194 10256 20194 50002
KCON 160534Z AUTO 00000KT 7SM OVC009 21/19 A3000 RMK AO2 T02060194
KCON 160451Z AUTO 09003KT 7SM OVC010 20/19 A3000 RMK AO2 SLP158 T02000189 403060183
KCON 160430Z AUTO 05003KT 8SM BKN012 20/18 A3000 RMK AO2 T02000183
KCON 160351Z AUTO 00000KT 8SM CLR 20/18 A2999 RMK AO2 SLP154 T02000183
KCON 160251Z AUTO 12003KT 10SM CLR 21/19 A2999 RMK AO2 SLP153 T02060194 51015
KCON 160151Z AUTO 12004KT 10SM CLR 22/20 A2998 RMK AO2 SLP151 T02170200
KCON 160051Z AUTO 15005KT 10SM CLR 23/21 A2996 RMK AO2 SLP145 T02280206
KCON 152351Z AUTO 12004KT 10SM CLR 26/22 A2994 RMK AO2 SLP138 60000 T02560217 10306 20256 53004